sensor_id;sensor_type;location;lat;lon;timestamp;temperature;humidity
48579;DHT22;34357;51.948;6.132;2023-06-14T00:00:43;19.20;43.30
48579;DHT22;34357;51.948;6.132;2023-06-14T00:03:10;19.20;43.10
48579;DHT22;34357;51.948;6.132;2023-06-14T00:05:38;19.10;44.10
48579;DHT22;34357;51.948;6.132;2023-06-14T00:08:07;19.00;44.00
48579;DHT22;34357;51.948;6.132;2023-06-14T00:10:36;19.00;43.70
48579;DHT22;34357;51.948;6.132;2023-06-14T00:13:03;18.90;43.80
48579;DHT22;34357;51.948;6.132;2023-06-14T00:15:31;18.90;44.30
48579;DHT22;34357;51.948;6.132;2023-06-14T00:18:00;18.90;44.20
48579;DHT22;34357;51.948;6.132;2023-06-14T00:20:30;18.80;44.40
48579;DHT22;34357;51.948;6.132;2023-06-14T00:22:58;18.80;44.50
48579;DHT22;34357;51.948;6.132;2023-06-14T00:25:24;18.80;45.60
48579;DHT22;34357;51.948;6.132;2023-06-14T00:27:54;18.70;45.60
48579;DHT22;34357;51.948;6.132;2023-06-14T00:30:20;18.60;45.80
48579;DHT22;34357;51.948;6.132;2023-06-14T00:32:46;18.50;45.80
48579;DHT22;34357;51.948;6.132;2023-06-14T00:35:13;18.50;46.80
48579;DHT22;34357;51.948;6.132;2023-06-14T00:37:39;18.40;46.80
48579;DHT22;34357;51.948;6.132;2023-06-14T00:40:06;18.40;47.50
48579;DHT22;34357;51.948;6.132;2023-06-14T00:42:32;18.40;48.00
48579;DHT22;34357;51.948;6.132;2023-06-14T00:45:00;18.20;48.40
48579;DHT22;34357;51.948;6.132;2023-06-14T00:47:26;18.20;47.80
48579;DHT22;34357;51.948;6.132;2023-06-14T00:49:53;18.20;48.20
48579;DHT22;34357;51.948;6.132;2023-06-14T00:52:21;18.10;48.80
48579;DHT22;34357;51.948;6.132;2023-06-14T00:54:50;18.00;49.20
48579;DHT22;34357;51.948;6.132;2023-06-14T00:57:16;18.00;49.10
48579;DHT22;34357;51.948;6.132;2023-06-14T00:59:47;18.00;48.60
48579;DHT22;34357;51.948;6.132;2023-06-14T01:02:14;18.00;49.70
48579;DHT22;34357;51.948;6.132;2023-06-14T01:04:41;17.90;49.70
48579;DHT22;34357;51.948;6.132;2023-06-14T01:15:06;17.80;50.00
48579;DHT22;34357;51.948;6.132;2023-06-14T01:17:33;17.70;50.50
48579;DHT22;34357;51.948;6.132;2023-06-14T01:20:02;17.60;50.30
48579;DHT22;34357;51.948;6.132;2023-06-14T01:22:28;17.60;50.50
48579;DHT22;34357;51.948;6.132;2023-06-14T01:24:55;17.50;50.20
48579;DHT22;34357;51.948;6.132;2023-06-14T01:27:23;17.50;52.00
48579;DHT22;34357;51.948;6.132;2023-06-14T01:29:51;17.40;51.40
48579;DHT22;34357;51.948;6.132;2023-06-14T01:32:26;17.50;51.40
48579;DHT22;34357;51.948;6.132;2023-06-14T01:34:54;17.50;51.20
48579;DHT22;34357;51.948;6.132;2023-06-14T01:37:20;17.40;51.50
48579;DHT22;34357;51.948;6.132;2023-06-14T01:39:48;17.40;51.60
48579;DHT22;34357;51.948;6.132;2023-06-14T01:42:18;17.40;52.10
48579;DHT22;34357;51.948;6.132;2023-06-14T01:44:45;17.30;52.50
48579;DHT22;34357;51.948;6.132;2023-06-14T01:47:12;17.30;52.40
48579;DHT22;34357;51.948;6.132;2023-06-14T01:49:38;17.30;52.40
48579;DHT22;34357;51.948;6.132;2023-06-14T01:52:04;17.30;52.40
48579;DHT22;34357;51.948;6.132;2023-06-14T01:54:31;17.20;52.20
48579;DHT22;34357;51.948;6.132;2023-06-14T01:56:57;17.10;52.70
48579;DHT22;34357;51.948;6.132;2023-06-14T01:59:23;17.10;52.20
48579;DHT22;34357;51.948;6.132;2023-06-14T02:01:49;17.20;52.60
48579;DHT22;34357;51.948;6.132;2023-06-14T02:04:14;17.10;52.80
48579;DHT22;34357;51.948;6.132;2023-06-14T02:06:40;17.10;53.10
48579;DHT22;34357;51.948;6.132;2023-06-14T02:09:06;17.00;52.80
48579;DHT22;34357;51.948;6.132;2023-06-14T02:11:32;17.00;53.40
48579;DHT22;34357;51.948;6.132;2023-06-14T02:13:58;17.00;52.90
48579;DHT22;34357;51.948;6.132;2023-06-14T02:16:25;16.90;53.50
48579;DHT22;34357;51.948;6.132;2023-06-14T02:18:53;16.90;53.00
48579;DHT22;34357;51.948;6.132;2023-06-14T02:21:19;16.90;53.90
48579;DHT22;34357;51.948;6.132;2023-06-14T02:23:45;16.90;53.70
48579;DHT22;34357;51.948;6.132;2023-06-14T02:26:11;16.90;53.10
48579;DHT22;34357;51.948;6.132;2023-06-14T02:28:37;16.80;53.40
48579;DHT22;34357;51.948;6.132;2023-06-14T02:31:03;16.80;53.60
48579;DHT22;34357;51.948;6.132;2023-06-14T02:33:29;16.80;53.70
48579;DHT22;34357;51.948;6.132;2023-06-14T02:35:55;16.80;53.80
48579;DHT22;34357;51.948;6.132;2023-06-14T02:38:21;16.70;53.60
48579;DHT22;34357;51.948;6.132;2023-06-14T02:40:48;16.70;54.20
48579;DHT22;34357;51.948;6.132;2023-06-14T02:43:13;16.60;54.60
48579;DHT22;34357;51.948;6.132;2023-06-14T02:45:40;16.70;54.30
48579;DHT22;34357;51.948;6.132;2023-06-14T02:48:06;16.60;55.00
48579;DHT22;34357;51.948;6.132;2023-06-14T02:50:32;16.60;54.80
48579;DHT22;34357;51.948;6.132;2023-06-14T02:52:58;16.50;54.80
48579;DHT22;34357;51.948;6.132;2023-06-14T02:55:24;16.50;55.20
48579;DHT22;34357;51.948;6.132;2023-06-14T02:57:50;16.50;55.10
48579;DHT22;34357;51.948;6.132;2023-06-14T03:00:17;16.40;55.20
48579;DHT22;34357;51.948;6.132;2023-06-14T03:02:45;16.40;55.40
48579;DHT22;34357;51.948;6.132;2023-06-14T03:05:12;16.40;55.60
48579;DHT22;34357;51.948;6.132;2023-06-14T03:07:39;16.40;55.70
48579;DHT22;34357;51.948;6.132;2023-06-14T03:10:10;16.40;56.40
48579;DHT22;34357;51.948;6.132;2023-06-14T03:12:37;16.30;55.80
48579;DHT22;34357;51.948;6.132;2023-06-14T03:15:04;16.30;55.90
48579;DHT22;34357;51.948;6.132;2023-06-14T03:17:34;16.30;55.70
48579;DHT22;34357;51.948;6.132;2023-06-14T03:20:03;16.20;56.10
48579;DHT22;34357;51.948;6.132;2023-06-14T03:22:31;16.20;56.30
48579;DHT22;34357;51.948;6.132;2023-06-14T03:25:00;16.20;56.20
48579;DHT22;34357;51.948;6.132;2023-06-14T03:27:26;16.20;56.20
48579;DHT22;34357;51.948;6.132;2023-06-14T03:29:55;16.20;56.60
48579;DHT22;34357;51.948;6.132;2023-06-14T03:32:21;16.10;56.80
48579;DHT22;34357;51.948;6.132;2023-06-14T03:34:46;16.10;56.90
48579;DHT22;34357;51.948;6.132;2023-06-14T03:37:17;16.10;57.30
48579;DHT22;34357;51.948;6.132;2023-06-14T03:39:44;16.10;57.40
48579;DHT22;34357;51.948;6.132;2023-06-14T03:42:15;16.10;57.70
48579;DHT22;34357;51.948;6.132;2023-06-14T03:44:42;16.10;57.20
48579;DHT22;34357;51.948;6.132;2023-06-14T03:47:08;16.00;57.20
48579;DHT22;34357;51.948;6.132;2023-06-14T03:49:34;16.00;57.70
48579;DHT22;34357;51.948;6.132;2023-06-14T03:52:00;16.00;57.40
48579;DHT22;34357;51.948;6.132;2023-06-14T03:54:28;16.00;58.00
48579;DHT22;34357;51.948;6.132;2023-06-14T03:56:54;16.00;58.00
48579;DHT22;34357;51.948;6.132;2023-06-14T03:59:23;16.00;57.90
48579;DHT22;34357;51.948;6.132;2023-06-14T04:01:48;16.00;58.20
48579;DHT22;34357;51.948;6.132;2023-06-14T04:04:15;16.00;57.80
48579;DHT22;34357;51.948;6.132;2023-06-14T04:06:44;16.00;58.30
48579;DHT22;34357;51.948;6.132;2023-06-14T04:09:13;16.00;58.40
48579;DHT22;34357;51.948;6.132;2023-06-14T04:11:40;16.00;58.40
48579;DHT22;34357;51.948;6.132;2023-06-14T04:14:06;16.00;58.20
48579;DHT22;34357;51.948;6.132;2023-06-14T04:16:32;16.00;58.70
48579;DHT22;34357;51.948;6.132;2023-06-14T04:19:00;16.10;58.00
48579;DHT22;34357;51.948;6.132;2023-06-14T04:21:26;16.10;58.60
48579;DHT22;34357;51.948;6.132;2023-06-14T04:23:54;16.10;58.30
48579;DHT22;34357;51.948;6.132;2023-06-14T04:26:23;16.10;59.20
48579;DHT22;34357;51.948;6.132;2023-06-14T04:28:56;16.10;58.80
48579;DHT22;34357;51.948;6.132;2023-06-14T04:31:23;16.10;59.10
48579;DHT22;34357;51.948;6.132;2023-06-14T04:33:56;16.10;59.30
48579;DHT22;34357;51.948;6.132;2023-06-14T04:36:22;16.10;58.60
48579;DHT22;34357;51.948;6.132;2023-06-14T04:38:49;16.20;59.20
48579;DHT22;34357;51.948;6.132;2023-06-14T04:41:15;16.20;59.00
48579;DHT22;34357;51.948;6.132;2023-06-14T04:43:42;16.30;58.50
48579;DHT22;34357;51.948;6.132;2023-06-14T04:46:09;16.30;58.90
48579;DHT22;34357;51.948;6.132;2023-06-14T04:48:39;16.40;59.10
48579;DHT22;34357;51.948;6.132;2023-06-14T04:51:10;16.40;58.70
48579;DHT22;34357;51.948;6.132;2023-06-14T04:53:36;16.40;58.80
48579;DHT22;34357;51.948;6.132;2023-06-14T04:56:03;16.50;58.60
48579;DHT22;34357;51.948;6.132;2023-06-14T04:58:31;16.60;58.30
48579;DHT22;34357;51.948;6.132;2023-06-14T05:00:57;16.60;58.80
48579;DHT22;34357;51.948;6.132;2023-06-14T05:03:25;16.70;58.60
48579;DHT22;34357;51.948;6.132;2023-06-14T05:05:52;16.70;59.00
48579;DHT22;34357;51.948;6.132;2023-06-14T05:08:20;16.80;57.70
48579;DHT22;34357;51.948;6.132;2023-06-14T05:10:49;16.80;58.30
48579;DHT22;34357;51.948;6.132;2023-06-14T05:13:14;16.90;58.00
48579;DHT22;34357;51.948;6.132;2023-06-14T05:15:41;16.90;58.30
48579;DHT22;34357;51.948;6.132;2023-06-14T05:18:07;17.00;57.80
48579;DHT22;34357;51.948;6.132;2023-06-14T05:20:35;17.00;57.50
48579;DHT22;34357;51.948;6.132;2023-06-14T05:23:03;17.20;58.20
48579;DHT22;34357;51.948;6.132;2023-06-14T05:25:29;17.20;57.40
48579;DHT22;34357;51.948;6.132;2023-06-14T05:27:55;17.40;56.60
48579;DHT22;34357;51.948;6.132;2023-06-14T05:30:21;17.50;55.60
48579;DHT22;34357;51.948;6.132;2023-06-14T05:32:47;17.50;55.30
48579;DHT22;34357;51.948;6.132;2023-06-14T05:35:13;17.60;54.50
48579;DHT22;34357;51.948;6.132;2023-06-14T05:37:38;17.70;54.90
48579;DHT22;34357;51.948;6.132;2023-06-14T05:40:05;17.70;54.20
48579;DHT22;34357;51.948;6.132;2023-06-14T05:42:32;17.80;54.70
48579;DHT22;34357;51.948;6.132;2023-06-14T05:44:58;17.90;54.70
48579;DHT22;34357;51.948;6.132;2023-06-14T05:47:26;17.90;54.00
48579;DHT22;34357;51.948;6.132;2023-06-14T05:49:53;18.00;53.60
48579;DHT22;34357;51.948;6.132;2023-06-14T05:52:19;18.10;54.10
48579;DHT22;34357;51.948;6.132;2023-06-14T05:54:46;18.10;54.00
48579;DHT22;34357;51.948;6.132;2023-06-14T05:57:12;18.20;53.50
48579;DHT22;34357;51.948;6.132;2023-06-14T05:59:37;18.30;53.40
48579;DHT22;34357;51.948;6.132;2023-06-14T06:02:03;18.40;53.80
48579;DHT22;34357;51.948;6.132;2023-06-14T06:04:29;18.50;53.30
48579;DHT22;34357;51.948;6.132;2023-06-14T06:06:55;18.50;53.40
48579;DHT22;34357;51.948;6.132;2023-06-14T06:09:21;18.60;52.80
48579;DHT22;34357;51.948;6.132;2023-06-14T06:11:46;18.70;52.70
48579;DHT22;34357;51.948;6.132;2023-06-14T06:14:12;18.80;52.50
48579;DHT22;34357;51.948;6.132;2023-06-14T06:16:38;18.90;52.80
48579;DHT22;34357;51.948;6.132;2023-06-14T06:19:03;19.00;52.50
48579;DHT22;34357;51.948;6.132;2023-06-14T06:21:29;19.20;52.40
48579;DHT22;34357;51.948;6.132;2023-06-14T06:23:55;19.30;51.30
48579;DHT22;34357;51.948;6.132;2023-06-14T06:26:22;19.40;51.40
48579;DHT22;34357;51.948;6.132;2023-06-14T06:28:48;19.40;51.00
48579;DHT22;34357;51.948;6.132;2023-06-14T06:31:14;19.60;51.10
48579;DHT22;34357;51.948;6.132;2023-06-14T06:33:40;19.80;50.20
48579;DHT22;34357;51.948;6.132;2023-06-14T06:36:06;19.90;49.80
48579;DHT22;34357;51.948;6.132;2023-06-14T06:38:32;20.00;49.60
48579;DHT22;34357;51.948;6.132;2023-06-14T06:40:58;20.20;49.40
48579;DHT22;34357;51.948;6.132;2023-06-14T06:43:24;20.30;49.70
48579;DHT22;34357;51.948;6.132;2023-06-14T06:45:49;20.40;48.20
48579;DHT22;34357;51.948;6.132;2023-06-14T06:48:15;20.70;49.00
48579;DHT22;34357;51.948;6.132;2023-06-14T06:50:41;20.90;47.50
48579;DHT22;34357;51.948;6.132;2023-06-14T06:53:07;21.00;47.00
48579;DHT22;34357;51.948;6.132;2023-06-14T06:55:33;21.20;45.60
48579;DHT22;34357;51.948;6.132;2023-06-14T06:57:59;21.40;45.70
48579;DHT22;34357;51.948;6.132;2023-06-14T07:00:25;21.50;45.50
48579;DHT22;34357;51.948;6.132;2023-06-14T07:02:51;22.00;44.70
48579;DHT22;34357;51.948;6.132;2023-06-14T07:05:17;22.50;43.90
48579;DHT22;34357;51.948;6.132;2023-06-14T07:07:43;23.00;42.30
48579;DHT22;34357;51.948;6.132;2023-06-14T07:10:09;23.10;41.80
48579;DHT22;34357;51.948;6.132;2023-06-14T07:12:35;23.40;40.40
48579;DHT22;34357;51.948;6.132;2023-06-14T07:15:08;23.60;40.30
48579;DHT22;34357;51.948;6.132;2023-06-14T07:17:35;23.90;40.10
48579;DHT22;34357;51.948;6.132;2023-06-14T07:20:02;24.20;39.20
48579;DHT22;34357;51.948;6.132;2023-06-14T07:22:33;24.60;39.30
48579;DHT22;34357;51.948;6.132;2023-06-14T07:24:58;24.90;38.20
48579;DHT22;34357;51.948;6.132;2023-06-14T07:27:24;24.60;37.80
48579;DHT22;34357;51.948;6.132;2023-06-14T07:29:50;24.40;39.40
48579;DHT22;34357;51.948;6.132;2023-06-14T07:32:16;24.70;38.60
48579;DHT22;34357;51.948;6.132;2023-06-14T07:34:41;25.20;37.60
48579;DHT22;34357;51.948;6.132;2023-06-14T07:37:07;25.00;37.60
48579;DHT22;34357;51.948;6.132;2023-06-14T07:39:33;25.20;36.00
48579;DHT22;34357;51.948;6.132;2023-06-14T07:41:59;25.20;36.50
48579;DHT22;34357;51.948;6.132;2023-06-14T07:44:24;24.90;36.70
48579;DHT22;34357;51.948;6.132;2023-06-14T07:46:50;24.80;36.70
48579;DHT22;34357;51.948;6.132;2023-06-14T07:49:16;25.00;37.70
48579;DHT22;34357;51.948;6.132;2023-06-14T07:51:42;25.60;36.10
48579;DHT22;34357;51.948;6.132;2023-06-14T07:54:09;25.80;35.50
48579;DHT22;34357;51.948;6.132;2023-06-14T07:56:35;25.90;35.70
48579;DHT22;34357;51.948;6.132;2023-06-14T07:59:01;26.10;34.30
48579;DHT22;34357;51.948;6.132;2023-06-14T08:01:28;26.10;34.20
48579;DHT22;34357;51.948;6.132;2023-06-14T08:03:53;25.60;34.60
48579;DHT22;34357;51.948;6.132;2023-06-14T08:06:19;25.80;35.00
48579;DHT22;34357;51.948;6.132;2023-06-14T08:08:46;26.20;35.50
48579;DHT22;34357;51.948;6.132;2023-06-14T08:11:11;25.80;34.20
48579;DHT22;34357;51.948;6.132;2023-06-14T08:13:37;25.90;35.30
48579;DHT22;34357;51.948;6.132;2023-06-14T08:16:03;26.40;33.90
48579;DHT22;34357;51.948;6.132;2023-06-14T08:18:30;26.00;33.50
48579;DHT22;34357;51.948;6.132;2023-06-14T08:20:56;25.90;34.20
48579;DHT22;34357;51.948;6.132;2023-06-14T08:23:23;25.60;34.10
48579;DHT22;34357;51.948;6.132;2023-06-14T08:25:49;25.90;35.00
48579;DHT22;34357;51.948;6.132;2023-06-14T08:28:15;26.10;34.90
48579;DHT22;34357;51.948;6.132;2023-06-14T08:30:42;26.30;35.20
48579;DHT22;34357;51.948;6.132;2023-06-14T08:33:08;26.70;34.30
48579;DHT22;34357;51.948;6.132;2023-06-14T08:35:34;27.00;33.30
48579;DHT22;34357;51.948;6.132;2023-06-14T08:38:03;26.90;32.70
48579;DHT22;34357;51.948;6.132;2023-06-14T08:40:30;27.10;32.00
48579;DHT22;34357;51.948;6.132;2023-06-14T08:42:56;26.90;32.20
48579;DHT22;34357;51.948;6.132;2023-06-14T08:45:23;26.80;32.30
48579;DHT22;34357;51.948;6.132;2023-06-14T08:47:53;26.80;33.30
48579;DHT22;34357;51.948;6.132;2023-06-14T08:50:24;26.70;33.00
48579;DHT22;34357;51.948;6.132;2023-06-14T08:52:54;26.90;32.60
48579;DHT22;34357;51.948;6.132;2023-06-14T08:55:22;26.90;33.20
48579;DHT22;34357;51.948;6.132;2023-06-14T08:57:56;27.10;32.90
48579;DHT22;34357;51.948;6.132;2023-06-14T09:00:26;27.10;32.80
48579;DHT22;34357;51.948;6.132;2023-06-14T09:02:53;27.20;32.60
48579;DHT22;34357;51.948;6.132;2023-06-14T09:05:26;27.50;31.60
48579;DHT22;34357;51.948;6.132;2023-06-14T09:07:52;27.50;32.30
48579;DHT22;34357;51.948;6.132;2023-06-14T09:10:22;27.70;31.70
48579;DHT22;34357;51.948;6.132;2023-06-14T09:12:48;27.50;31.70
48579;DHT22;34357;51.948;6.132;2023-06-14T09:15:14;27.30;31.80
48579;DHT22;34357;51.948;6.132;2023-06-14T09:17:40;27.50;31.80
48579;DHT22;34357;51.948;6.132;2023-06-14T09:20:08;27.40;32.10
48579;DHT22;34357;51.948;6.132;2023-06-14T09:22:39;27.10;32.60
48579;DHT22;34357;51.948;6.132;2023-06-14T09:25:06;26.80;33.10
48579;DHT22;34357;51.948;6.132;2023-06-14T09:27:32;26.80;32.40
48579;DHT22;34357;51.948;6.132;2023-06-14T09:29:58;26.50;34.00
48579;DHT22;34357;51.948;6.132;2023-06-14T09:32:25;26.80;33.30
48579;DHT22;34357;51.948;6.132;2023-06-14T09:34:51;27.10;32.90
48579;DHT22;34357;51.948;6.132;2023-06-14T09:37:29;27.20;33.30
48579;DHT22;34357;51.948;6.132;2023-06-14T09:39:55;27.70;33.50
48579;DHT22;34357;51.948;6.132;2023-06-14T09:42:21;27.40;32.00
48579;DHT22;34357;51.948;6.132;2023-06-14T09:44:49;27.80;30.70
48579;DHT22;34357;51.948;6.132;2023-06-14T09:47:15;27.70;31.20
48579;DHT22;34357;51.948;6.132;2023-06-14T09:49:42;27.50;32.00
48579;DHT22;34357;51.948;6.132;2023-06-14T09:52:17;27.60;31.80
48579;DHT22;34357;51.948;6.132;2023-06-14T09:54:45;27.60;32.00
48579;DHT22;34357;51.948;6.132;2023-06-14T09:57:22;28.00;31.30
48579;DHT22;34357;51.948;6.132;2023-06-14T09:59:48;27.70;30.50
48579;DHT22;34357;51.948;6.132;2023-06-14T10:02:29;27.40;30.80
48579;DHT22;34357;51.948;6.132;2023-06-14T10:05:07;27.60;32.40
48579;DHT22;34357;51.948;6.132;2023-06-14T10:07:47;27.80;31.00
48579;DHT22;34357;51.948;6.132;2023-06-14T10:10:14;28.00;31.10
48579;DHT22;34357;51.948;6.132;2023-06-14T10:12:40;28.00;30.50
48579;DHT22;34357;51.948;6.132;2023-06-14T10:15:09;28.10;30.40
48579;DHT22;34357;51.948;6.132;2023-06-14T10:20:30;27.70;30.30
48579;DHT22;34357;51.948;6.132;2023-06-14T10:23:24;27.80;30.10
48579;DHT22;34357;51.948;6.132;2023-06-14T10:25:56;27.90;30.00
48579;DHT22;34357;51.948;6.132;2023-06-14T10:28:23;28.10;30.20
48579;DHT22;34357;51.948;6.132;2023-06-14T10:33:29;28.10;29.30
48579;DHT22;34357;51.948;6.132;2023-06-14T10:38:34;27.90;30.10
48579;DHT22;34357;51.948;6.132;2023-06-14T10:41:02;27.90;31.00
48579;DHT22;34357;51.948;6.132;2023-06-14T10:43:28;28.00;30.10
48579;DHT22;34357;51.948;6.132;2023-06-14T10:48:42;27.80;30.60
48579;DHT22;34357;51.948;6.132;2023-06-14T10:51:15;27.60;30.20
48579;DHT22;34357;51.948;6.132;2023-06-14T10:53:42;27.20;30.00
48579;DHT22;34357;51.948;6.132;2023-06-14T10:56:08;27.20;31.60
48579;DHT22;34357;51.948;6.132;2023-06-14T10:58:34;27.20;30.60
48579;DHT22;34357;51.948;6.132;2023-06-14T11:01:00;27.20;30.20
48579;DHT22;34357;51.948;6.132;2023-06-14T11:03:52;27.40;30.30
48579;DHT22;34357;51.948;6.132;2023-06-14T11:06:22;27.40;30.60
48579;DHT22;34357;51.948;6.132;2023-06-14T11:11:42;27.60;29.90
48579;DHT22;34357;51.948;6.132;2023-06-14T11:14:10;27.60;31.30
48579;DHT22;34357;51.948;6.132;2023-06-14T11:16:36;27.90;31.70
48579;DHT22;34357;51.948;6.132;2023-06-14T11:19:02;27.70;30.80
48579;DHT22;34357;51.948;6.132;2023-06-14T11:21:34;27.70;30.30
48579;DHT22;34357;51.948;6.132;2023-06-14T11:24:10;27.40;30.70
48579;DHT22;34357;51.948;6.132;2023-06-14T11:26:37;27.20;31.90
48579;DHT22;34357;51.948;6.132;2023-06-14T11:29:03;27.40;31.30
48579;DHT22;34357;51.948;6.132;2023-06-14T11:31:29;27.40;31.50
48579;DHT22;34357;51.948;6.132;2023-06-14T11:33:57;27.40;32.70
48579;DHT22;34357;51.948;6.132;2023-06-14T11:36:27;27.20;30.90
48579;DHT22;34357;51.948;6.132;2023-06-14T11:39:05;27.20;31.40
48579;DHT22;34357;51.948;6.132;2023-06-14T11:41:40;26.90;31.30
48579;DHT22;34357;51.948;6.132;2023-06-14T11:44:07;27.10;30.80
48579;DHT22;34357;51.948;6.132;2023-06-14T11:46:33;27.20;31.70
48579;DHT22;34357;51.948;6.132;2023-06-14T11:48:59;27.30;32.20
48579;DHT22;34357;51.948;6.132;2023-06-14T11:51:29;27.20;32.10
48579;DHT22;34357;51.948;6.132;2023-06-14T11:53:56;27.10;32.10
48579;DHT22;34357;51.948;6.132;2023-06-14T11:56:22;27.30;31.60
48579;DHT22;34357;51.948;6.132;2023-06-14T11:58:47;27.00;32.60
48579;DHT22;34357;51.948;6.132;2023-06-14T12:01:17;27.00;33.30
48579;DHT22;34357;51.948;6.132;2023-06-14T12:03:50;27.20;33.20
48579;DHT22;34357;51.948;6.132;2023-06-14T12:06:17;27.10;33.50
48579;DHT22;34357;51.948;6.132;2023-06-14T12:08:51;27.20;32.20
48579;DHT22;34357;51.948;6.132;2023-06-14T12:11:17;27.30;33.40
48579;DHT22;34357;51.948;6.132;2023-06-14T12:13:43;27.40;33.20
48579;DHT22;34357;51.948;6.132;2023-06-14T12:16:10;27.50;33.20
48579;DHT22;34357;51.948;6.132;2023-06-14T12:18:38;27.20;32.30
48579;DHT22;34357;51.948;6.132;2023-06-14T12:21:08;27.20;31.60
48579;DHT22;34357;51.948;6.132;2023-06-14T12:23:45;27.20;32.60
48579;DHT22;34357;51.948;6.132;2023-06-14T12:26:19;27.10;31.50
48579;DHT22;34357;51.948;6.132;2023-06-14T12:28:46;27.00;31.30
48579;DHT22;34357;51.948;6.132;2023-06-14T12:31:13;26.80;32.10
48579;DHT22;34357;51.948;6.132;2023-06-14T12:33:40;26.80;31.60
48579;DHT22;34357;51.948;6.132;2023-06-14T12:36:07;26.90;33.10
48579;DHT22;34357;51.948;6.132;2023-06-14T12:38:34;26.90;32.30
48579;DHT22;34357;51.948;6.132;2023-06-14T12:41:00;27.00;32.00
48579;DHT22;34357;51.948;6.132;2023-06-14T12:43:26;27.00;32.10
48579;DHT22;34357;51.948;6.132;2023-06-14T12:45:52;27.20;31.90
48579;DHT22;34357;51.948;6.132;2023-06-14T12:48:18;27.20;32.20
48579;DHT22;34357;51.948;6.132;2023-06-14T12:50:43;27.20;31.20
48579;DHT22;34357;51.948;6.132;2023-06-14T12:53:09;27.20;32.60
48579;DHT22;34357;51.948;6.132;2023-06-14T12:55:35;27.20;32.30
48579;DHT22;34357;51.948;6.132;2023-06-14T12:58:00;27.10;31.40
48579;DHT22;34357;51.948;6.132;2023-06-14T13:00:27;27.00;32.50
48579;DHT22;34357;51.948;6.132;2023-06-14T13:02:53;27.00;31.00
48579;DHT22;34357;51.948;6.132;2023-06-14T13:05:18;26.90;30.60
48579;DHT22;34357;51.948;6.132;2023-06-14T13:07:44;26.90;31.60
48579;DHT22;34357;51.948;6.132;2023-06-14T13:10:11;26.90;32.80
48579;DHT22;34357;51.948;6.132;2023-06-14T13:12:36;27.10;32.10
48579;DHT22;34357;51.948;6.132;2023-06-14T13:15:02;27.00;32.20
48579;DHT22;34357;51.948;6.132;2023-06-14T13:17:28;27.00;31.50
48579;DHT22;34357;51.948;6.132;2023-06-14T13:19:54;26.90;31.40
48579;DHT22;34357;51.948;6.132;2023-06-14T13:22:20;26.70;31.90
48579;DHT22;34357;51.948;6.132;2023-06-14T13:24:47;26.80;32.00
48579;DHT22;34357;51.948;6.132;2023-06-14T13:27:12;26.80;33.00
48579;DHT22;34357;51.948;6.132;2023-06-14T13:29:40;27.00;32.10
48579;DHT22;34357;51.948;6.132;2023-06-14T13:32:06;26.90;32.60
48579;DHT22;34357;51.948;6.132;2023-06-14T13:34:32;26.80;32.70
48579;DHT22;34357;51.948;6.132;2023-06-14T13:36:58;26.60;31.90
48579;DHT22;34357;51.948;6.132;2023-06-14T13:39:27;26.50;32.60
48579;DHT22;34357;51.948;6.132;2023-06-14T13:41:53;26.80;33.60
48579;DHT22;34357;51.948;6.132;2023-06-14T13:44:19;26.90;32.20
48579;DHT22;34357;51.948;6.132;2023-06-14T13:46:46;26.90;32.40
48579;DHT22;34357;51.948;6.132;2023-06-14T13:49:12;26.90;31.60
48579;DHT22;34357;51.948;6.132;2023-06-14T13:51:38;26.70;32.20
48579;DHT22;34357;51.948;6.132;2023-06-14T13:54:06;26.80;31.30
48579;DHT22;34357;51.948;6.132;2023-06-14T13:56:32;26.70;32.30
48579;DHT22;34357;51.948;6.132;2023-06-14T13:58:58;26.70;32.30
48579;DHT22;34357;51.948;6.132;2023-06-14T14:01:26;26.80;32.00
48579;DHT22;34357;51.948;6.132;2023-06-14T14:03:54;26.70;33.30
48579;DHT22;34357;51.948;6.132;2023-06-14T14:06:20;26.90;33.70
48579;DHT22;34357;51.948;6.132;2023-06-14T14:08:46;26.80;33.30
48579;DHT22;34357;51.948;6.132;2023-06-14T14:11:12;26.70;33.40
48579;DHT22;34357;51.948;6.132;2023-06-14T14:13:39;26.50;33.40
48579;DHT22;34357;51.948;6.132;2023-06-14T14:16:06;26.60;33.20
48579;DHT22;34357;51.948;6.132;2023-06-14T14:18:32;26.60;32.60
48579;DHT22;34357;51.948;6.132;2023-06-14T14:21:01;26.70;33.30
48579;DHT22;34357;51.948;6.132;2023-06-14T14:23:27;26.80;34.40
48579;DHT22;34357;51.948;6.132;2023-06-14T14:25:54;26.70;34.10
48579;DHT22;34357;51.948;6.132;2023-06-14T14:28:20;26.70;32.80
48579;DHT22;34357;51.948;6.132;2023-06-14T14:30:46;26.50;34.10
48579;DHT22;34357;51.948;6.132;2023-06-14T14:33:14;26.60;34.40
48579;DHT22;34357;51.948;6.132;2023-06-14T14:35:43;26.70;33.70
48579;DHT22;34357;51.948;6.132;2023-06-14T14:38:12;26.80;34.20
48579;DHT22;34357;51.948;6.132;2023-06-14T14:40:39;26.70;33.30
48579;DHT22;34357;51.948;6.132;2023-06-14T14:43:06;26.70;34.00
48579;DHT22;34357;51.948;6.132;2023-06-14T14:45:32;26.70;33.40
48579;DHT22;34357;51.948;6.132;2023-06-14T14:47:58;26.50;33.00
48579;DHT22;34357;51.948;6.132;2023-06-14T14:50:25;26.40;33.60
48579;DHT22;34357;51.948;6.132;2023-06-14T14:52:51;26.40;33.60
48579;DHT22;34357;51.948;6.132;2023-06-14T14:55:17;26.40;33.60
48579;DHT22;34357;51.948;6.132;2023-06-14T14:57:45;26.60;35.90
48579;DHT22;34357;51.948;6.132;2023-06-14T15:00:11;26.60;32.40
48579;DHT22;34357;51.948;6.132;2023-06-14T15:02:37;26.40;33.00
48579;DHT22;34357;51.948;6.132;2023-06-14T15:05:03;26.40;33.40
48579;DHT22;34357;51.948;6.132;2023-06-14T15:07:30;26.50;33.20
48579;DHT22;34357;51.948;6.132;2023-06-14T15:09:57;26.40;34.40
48579;DHT22;34357;51.948;6.132;2023-06-14T15:12:23;26.30;33.60
48579;DHT22;34357;51.948;6.132;2023-06-14T15:14:52;26.40;33.40
48579;DHT22;34357;51.948;6.132;2023-06-14T15:17:20;26.40;33.90
48579;DHT22;34357;51.948;6.132;2023-06-14T15:19:46;26.40;34.90
48579;DHT22;34357;51.948;6.132;2023-06-14T15:22:13;26.40;34.00
48579;DHT22;34357;51.948;6.132;2023-06-14T15:24:44;26.40;34.00
48579;DHT22;34357;51.948;6.132;2023-06-14T15:27:11;26.40;34.40
48579;DHT22;34357;51.948;6.132;2023-06-14T15:29:44;26.30;33.20
48579;DHT22;34357;51.948;6.132;2023-06-14T15:32:10;26.30;33.90
48579;DHT22;34357;51.948;6.132;2023-06-14T15:34:36;26.30;34.10
48579;DHT22;34357;51.948;6.132;2023-06-14T15:37:08;26.30;33.40
48579;DHT22;34357;51.948;6.132;2023-06-14T15:39:34;26.30;33.40
48579;DHT22;34357;51.948;6.132;2023-06-14T15:42:00;26.20;34.00
48579;DHT22;34357;51.948;6.132;2023-06-14T15:44:29;26.40;33.00
48579;DHT22;34357;51.948;6.132;2023-06-14T15:46:55;26.40;33.30
48579;DHT22;34357;51.948;6.132;2023-06-14T15:49:21;26.30;35.00
48579;DHT22;34357;51.948;6.132;2023-06-14T15:51:47;26.20;34.10